Sea Thames — V2BV1 — position and weather

sailwx.info

Track history (hours):
 
Tides and Currents Weather Stations Pressure Air Temp Water Temp Dewpoint Dewpoint Depression Visibility Wind Speed Wind Dir Waves Ship Positions

Sea Thames

Last reported at 2015-Mar-27 20:34 UTC. Time now 2015-Mar-27 21:00 UTC.
Position N 54°46' W 005°25'.

Length 87 m; draft 3.8 m.

Type: Cargo ship. MMSI: 304933000.

Date/timePositionNaut miles runAvg speedWind from/ knotsBaromVisibWave heightAir tempDewpointWater temp
2015-Mar-27 20:34N 54°46' W 005°25'32 7.9
2015-Mar-27 16:33N 55°12' W 005°56'1010.2
2015-Mar-27 15:33N 55°20' W 006°06'10 9.7
2015-Mar-27 14:33N 55°19' W 006°23'1010.2
2015-Mar-27 13:33N 55°14' W 006°39'  
2015-Mar-25 02:25N 55°14' W 006°43'5 6.1
2015-Mar-25 01:33N 55°17' W 006°36'5 5.1
2015-Mar-25 00:33N 55°21' W 006°28'4 4.1
2015-Mar-24 23:33N 55°23' W 006°22'4 3.7
2015-Mar-24 22:33N 55°25' W 006°17'3 3.3
2015-Mar-24 21:33N 55°25' W 006°11'5 4.6
2015-Mar-24 20:33N 55°24' W 006°03'6 6.0
2015-Mar-24 19:33N 55°20' W 005°56'8 8.0
2015-Mar-24 18:32N 55°12' W 005°50'19 9.4
2015-Mar-24 16:30N 54°54' W 005°40'8 8.6
2015-Mar-24 15:33N 54°46' W 005°36'8 7.9
2015-Mar-24 14:33N 54°41' W 005°47'5 0.2
2015-Mar-23 07:27N 54°38' W 005°53'7 8.1
2015-Mar-23 06:33N 54°42' W 005°43'7 6.8
2015-Mar-23 05:33N 54°43' W 005°31'5 5.5
2015-Mar-23 04:33N 54°39' W 005°25'6 6.3
2015-Mar-23 03:33N 54°33' W 005°20'8 7.6
2015-Mar-23 02:33N 54°25' W 005°19'9 8.4
2015-Mar-23 01:32N 54°17' W 005°19'  
2015-Mar-20 19:12N 50°36' E 000°20'6 9.5
2015-Mar-20 18:33N 50°37' E 000°29'3610.9
2015-Mar-20 15:17N 50°58' E 001°15'7 9.2
2015-Mar-20 14:33N 51°02' E 001°23'8 7.6
2015-Mar-20 13:33N 51°07' E 001°32'6 5.9
2015-Mar-20 12:34N 51°11' E 001°39'6 6.3
2015-Mar-20 11:33N 51°15' E 001°48'8 8.2
2015-Mar-20 10:33N 51°22' E 001°52'1110.3
2015-Mar-20 09:28N 51°32' E 002°02'1111.8
2015-Mar-20 08:32N 51°40' E 002°14'63 9.0
2015-Mar-20 01:30N 52°04' E 003°48'8 8.1
2015-Mar-20 00:33N 52°01' E 003°60'1010.1
2015-Mar-19 23:33N 51°56' E 004°14'4 2.9
2015-Mar-19 22:11N 51°54' E 004°19'0 0.0
2015-Mar-19 21:23N 51°54' E 004°19'0 0.0
2015-Mar-19 20:29N 51°54' E 004°19'0 0.0
2015-Mar-19 19:29N 51°54' E 004°19'0 0.0
2015-Mar-19 18:29N 51°54' E 004°19'0 0.0
2015-Mar-19 17:20N 51°54' E 004°19'0 0.0
2015-Mar-19 15:30N 51°54' E 004°19'0 0.1
2015-Mar-19 14:33N 51°54' E 004°19'0 0.0
2015-Mar-19 13:33N 51°54' E 004°19'0 0.0
2015-Mar-19 12:33N 51°54' E 004°19'4 4.3
2015-Mar-19 11:33N 51°56' E 004°13'7 7.2
2015-Mar-19 10:34N 51°59' E 004°03'7 6.8
2015-Mar-19 09:29N 51°59' E 003°51'62 7.7
2015-Mar-19 01:27N 51°32' E 002°21'20 9.4
2015-Mar-18 23:17N 51°14' E 002°05'910.1
2015-Mar-18 22:21N 51°09' E 001°52'810.0
2015-Mar-18 21:33N 51°04' E 001°43'12 9.0
2015-Mar-18 20:15N 50°55' E 001°30'116 7.4
2015-Mar-18 04:33N 49°59' W 001°10'  
Track history (hours):
 
Tides and Currents Weather Stations Pressure Air Temp Water Temp Dewpoint Dewpoint Depression Visibility Wind Speed Wind Dir Waves Ship Positions

Sea Thames

Last reported at 2015-Mar-27 20:34 UTC. Time now 2015-Mar-27 21:00 UTC.
Position N 54°46' W 005°25'.

Length 87 m; draft 3.8 m.

Type: Cargo ship. MMSI: 304933000.

Date/timePositionNaut miles runAvg speedWind from/ knotsBaromVisibWave heightAir tempDewpointWater temp
2015-Mar-27 20:34N 54°46' W 005°25'32 7.9
2015-Mar-27 16:33N 55°12' W 005°56'1010.2
2015-Mar-27 15:33N 55°20' W 006°06'10 9.7
2015-Mar-27 14:33N 55°19' W 006°23'1010.2
2015-Mar-27 13:33N 55°14' W 006°39'  
2015-Mar-25 02:25N 55°14' W 006°43'5 6.1
2015-Mar-25 01:33N 55°17' W 006°36'5 5.1
2015-Mar-25 00:33N 55°21' W 006°28'4 4.1
2015-Mar-24 23:33N 55°23' W 006°22'4 3.7
2015-Mar-24 22:33N 55°25' W 006°17'3 3.3
2015-Mar-24 21:33N 55°25' W 006°11'5 4.6
2015-Mar-24 20:33N 55°24' W 006°03'6 6.0
2015-Mar-24 19:33N 55°20' W 005°56'8 8.0
2015-Mar-24 18:32N 55°12' W 005°50'19 9.4
2015-Mar-24 16:30N 54°54' W 005°40'8 8.6
2015-Mar-24 15:33N 54°46' W 005°36'8 7.9
2015-Mar-24 14:33N 54°41' W 005°47'5 0.2
2015-Mar-23 07:27N 54°38' W 005°53'7 8.1
2015-Mar-23 06:33N 54°42' W 005°43'7 6.8
2015-Mar-23 05:33N 54°43' W 005°31'5 5.5
2015-Mar-23 04:33N 54°39' W 005°25'6 6.3
2015-Mar-23 03:33N 54°33' W 005°20'8 7.6
2015-Mar-23 02:33N 54°25' W 005°19'9 8.4
2015-Mar-23 01:32N 54°17' W 005°19'  
2015-Mar-20 19:12N 50°36' E 000°20'6 9.5
2015-Mar-20 18:33N 50°37' E 000°29'3610.9
2015-Mar-20 15:17N 50°58' E 001°15'7 9.2
2015-Mar-20 14:33N 51°02' E 001°23'8 7.6
2015-Mar-20 13:33N 51°07' E 001°32'6 5.9
2015-Mar-20 12:34N 51°11' E 001°39'6 6.3
2015-Mar-20 11:33N 51°15' E 001°48'8 8.2
2015-Mar-20 10:33N 51°22' E 001°52'1110.3
2015-Mar-20 09:28N 51°32' E 002°02'1111.8
2015-Mar-20 08:32N 51°40' E 002°14'63 9.0
2015-Mar-20 01:30N 52°04' E 003°48'8 8.1
2015-Mar-20 00:33N 52°01' E 003°60'1010.1
2015-Mar-19 23:33N 51°56' E 004°14'4 2.9
2015-Mar-19 22:11N 51°54' E 004°19'0 0.0
2015-Mar-19 21:23N 51°54' E 004°19'0 0.0
2015-Mar-19 20:29N 51°54' E 004°19'0 0.0
2015-Mar-19 19:29N 51°54' E 004°19'0 0.0
2015-Mar-19 18:29N 51°54' E 004°19'0 0.0
2015-Mar-19 17:20N 51°54' E 004°19'0 0.0
2015-Mar-19 15:30N 51°54' E 004°19'0 0.1
2015-Mar-19 14:33N 51°54' E 004°19'0 0.0
2015-Mar-19 13:33N 51°54' E 004°19'0 0.0
2015-Mar-19 12:33N 51°54' E 004°19'4 4.3
2015-Mar-19 11:33N 51°56' E 004°13'7 7.2
2015-Mar-19 10:34N 51°59' E 004°03'7 6.8
2015-Mar-19 09:29N 51°59' E 003°51'62 7.7
2015-Mar-19 01:27N 51°32' E 002°21'20 9.4
2015-Mar-18 23:17N 51°14' E 002°05'910.1
2015-Mar-18 22:21N 51°09' E 001°52'810.0
2015-Mar-18 21:33N 51°04' E 001°43'12 9.0
2015-Mar-18 20:15N 50°55' E 001°30'116 7.4
2015-Mar-18 04:33N 49°59' W 001°10'  

Dump ship's entire track history